Time;durP1;ratioP1;P1;durP2;ratioP2;P2;SDS_P1;SDS_P2;PMS_P1;PMS_P2;Temp;Humidity;BMP_temperature;BMP_pressure;BME280_temperature;BME280_humidity;BME280_pressure;Samples;Min_cycle;Max_cycle;Signal;HPM_P1;HPM_P2
2023/12/01 00:01:25;;;;;;;21.10;8.02;;;;;;;;;;5024295;28;20040;-86
2023/12/01 00:03:51;;;;;;;20.95;7.55;;;;;;;;;;5009424;28;20079;-86
2023/12/01 00:06:17;;;;;;;17.27;7.22;;;;;;;;;;5010781;28;20037;-86
2023/12/01 00:08:43;;;;;;;19.48;7.18;;;;;;;;;;5023762;28;20036;-86
2023/12/01 00:11:09;;;;;;;20.85;7.28;;;;;;;;;;5008843;28;20095;-86
2023/12/01 00:13:35;;;;;;;21.65;8.07;;;;;;;;;;5025689;28;20076;-87
2023/12/01 00:16:01;;;;;;;19.63;7.63;;;;;;;;;;5023287;28;20396;-87
2023/12/01 00:18:27;;;;;;;21.02;8.13;;;;;;;;;;5025305;28;20561;-86
2023/12/01 00:20:53;;;;;;;21.48;6.75;;;;;;;;;;5008611;28;20052;-86
2023/12/01 00:23:20;;;;;;;18.88;6.60;;;;;;;;;;5024445;28;20062;-86
2023/12/01 00:25:47;;;;;;;19.70;6.03;;;;;;;;;;5024273;28;20041;-86
2023/12/01 00:28:14;;;;;;;16.27;6.35;;;;;;;;;;5007652;28;20091;-86
2023/12/01 00:30:40;;;;;;;18.85;6.88;;;;;;;;;;5011551;28;20041;-86
2023/12/01 00:33:06;;;;;;;16.40;5.43;;;;;;;;;;5007918;28;20453;-86
2023/12/01 00:35:32;;;;;;;14.10;6.15;;;;;;;;;;5024126;28;20076;-86
2023/12/01 00:37:58;;;;;;;13.93;5.90;;;;;;;;;;5024663;28;20033;-86
2023/12/01 00:40:24;;;;;;;19.35;6.72;;;;;;;;;;5026722;28;20037;-86
2023/12/01 00:42:50;;;;;;;17.98;6.88;;;;;;;;;;5014513;28;20127;-86
2023/12/01 00:45:17;;;;;;;14.20;5.90;;;;;;;;;;5027508;28;20114;-86
2023/12/01 00:47:43;;;;;;;17.17;6.93;;;;;;;;;;5020922;28;20060;-86
2023/12/01 00:50:09;;;;;;;16.52;5.95;;;;;;;;;;5013336;28;20053;-86
2023/12/01 00:52:35;;;;;;;16.55;6.07;;;;;;;;;;5025767;28;20492;-86
2023/12/01 00:55:01;;;;;;;15.73;5.90;;;;;;;;;;5020971;28;20086;-86
2023/12/01 00:57:27;;;;;;;13.88;5.57;;;;;;;;;;5024209;28;20087;-86
2023/12/01 00:59:53;;;;;;;13.50;5.20;;;;;;;;;;5028796;28;20532;-86
2023/12/01 01:02:19;;;;;;;16.13;4.65;;;;;;;;;;5014283;28;20123;-86
2023/12/01 01:04:45;;;;;;;13.13;5.82;;;;;;;;;;5028800;28;20064;-86
2023/12/01 01:07:12;;;;;;;13.82;5.18;;;;;;;;;;5007762;28;20041;-86
2023/12/01 01:09:38;;;;;;;15.23;5.60;;;;;;;;;;5016493;28;20493;-86
2023/12/01 01:12:04;;;;;;;12.68;5.35;;;;;;;;;;5028595;28;20048;-86
2023/12/01 01:14:30;;;;;;;13.30;4.60;;;;;;;;;;5031863;28;20045;-86
2023/12/01 01:16:57;;;;;;;12.63;6.43;;;;;;;;;;5029841;28;20029;-86
2023/12/01 01:19:23;;;;;;;16.27;6.75;;;;;;;;;;5009091;28;20029;-86
2023/12/01 01:21:49;;;;;;;17.05;6.70;;;;;;;;;;5029408;28;20511;-86
2023/12/01 01:24:15;;;;;;;17.95;5.68;;;;;;;;;;5030875;28;20071;-86
2023/12/01 01:26:41;;;;;;;14.75;6.03;;;;;;;;;;5027138;28;20037;-86
2023/12/01 01:29:07;;;;;;;17.05;5.95;;;;;;;;;;5018322;28;20090;-86
2023/12/01 01:31:33;;;;;;;16.60;6.10;;;;;;;;;;5030984;28;20073;-86
2023/12/01 01:33:59;;;;;;;17.25;6.05;;;;;;;;;;5029935;28;20531;-86
2023/12/01 01:36:25;;;;;;;16.10;6.13;;;;;;;;;;5009312;28;20037;-86
2023/12/01 01:38:51;;;;;;;15.02;5.95;;;;;;;;;;5012318;28;20137;-86
2023/12/01 01:41:17;;;;;;;16.40;5.07;;;;;;;;;;5027034;28;20037;-85
2023/12/01 01:43:43;;;;;;;13.07;5.38;;;;;;;;;;5011250;28;20041;-86
2023/12/01 01:46:11;;;;;;;11.60;4.85;;;;;;;;;;5043218;28;20117;-86
2023/12/01 01:48:38;;;;;;;13.93;4.75;;;;;;;;;;5006564;28;20136;-86
2023/12/01 01:51:09;;;;;;;17.00;5.18;;;;;;;;;;5045352;28;20036;-86
2023/12/01 01:53:36;;;;;;;11.60;4.43;;;;;;;;;;5025763;28;20873;-86
2023/12/01 01:56:02;;;;;;;11.55;5.75;;;;;;;;;;5012381;28;20090;-86
2023/12/01 01:58:28;;;;;;;17.42;5.90;;;;;;;;;;5025149;28;20123;-86
2023/12/01 02:00:54;;;;;;;15.45;5.72;;;;;;;;;;5010293;28;20044;-86
2023/12/01 02:03:21;;;;;;;13.38;4.43;;;;;;;;;;5011749;28;20048;-86
2023/12/01 02:05:50;;;;;;;15.55;5.85;;;;;;;;;;5031361;28;20106;-86
2023/12/01 02:08:20;;;;;;;15.15;5.45;;;;;;;;;;5011227;28;20041;-86
2023/12/01 02:10:46;;;;;;;14.77;4.72;;;;;;;;;;5029668;28;20041;-86
2023/12/01 02:13:14;;;;;;;11.93;5.57;;;;;;;;;;5021767;28;20398;-86
2023/12/01 02:15:41;;;;;;;14.40;4.60;;;;;;;;;;5011095;28;20033;-86
2023/12/01 02:18:19;;;;;;;14.07;5.70;;;;;;;;;;5029709;28;20052;-85
2023/12/01 02:20:45;;;;;;;15.13;5.85;;;;;;;;;;5024318;28;20038;-86
2023/12/01 02:23:11;;;;;;;12.60;5.63;;;;;;;;;;5028201;28;20052;-86
2023/12/01 02:25:37;;;;;;;13.73;5.15;;;;;;;;;;5042427;28;20051;-86
2023/12/01 02:28:03;;;;;;;14.63;5.45;;;;;;;;;;5029572;28;20037;-86
2023/12/01 02:30:29;;;;;;;10.93;5.65;;;;;;;;;;5015184;28;20403;-86
2023/12/01 02:32:55;;;;;;;12.35;4.72;;;;;;;;;;5030438;28;20067;-86
2023/12/01 02:35:21;;;;;;;16.50;5.45;;;;;;;;;;5028595;28;20204;-86
2023/12/01 02:37:47;;;;;;;11.75;4.60;;;;;;;;;;5017096;28;20399;-85
2023/12/01 02:40:17;;;;;;;12.95;4.93;;;;;;;;;;5032734;28;20033;-85
2023/12/01 02:42:47;;;;;;;11.60;5.82;;;;;;;;;;5028391;28;20484;-86
2023/12/01 02:45:13;;;;;;;11.18;4.35;;;;;;;;;;5010709;28;20040;-85
2023/12/01 02:47:39;;;;;;;12.02;4.95;;;;;;;;;;5024514;28;20060;-85
2023/12/01 02:50:09;;;;;;;13.98;4.50;;;;;;;;;;5005669;28;20443;-85
2023/12/01 02:52:35;;;;;;;11.63;4.82;;;;;;;;;;5011110;28;20124;-85
2023/12/01 02:55:01;;;;;;;13.43;5.70;;;;;;;;;;5027590;28;20390;-85
2023/12/01 02:57:27;;;;;;;13.95;5.72;;;;;;;;;;5010885;28;20033;-85
2023/12/01 02:59:53;;;;;;;11.65;4.95;;;;;;;;;;5027393;28;20038;-85
2023/12/01 03:02:19;;;;;;;14.60;5.18;;;;;;;;;;5010215;28;20044;-85
2023/12/01 03:04:45;;;;;;;10.50;4.07;;;;;;;;;;5029544;28;20118;-85
2023/12/01 03:07:11;;;;;;;13.18;5.78;;;;;;;;;;5026769;28;20049;-85
2023/12/01 03:09:37;;;;;;;9.73;4.25;;;;;;;;;;5016422;28;20037;-85
2023/12/01 03:12:03;;;;;;;14.48;5.47;;;;;;;;;;5026834;28;20033;-85
2023/12/01 03:14:29;;;;;;;15.50;6.25;;;;;;;;;;5012242;28;20063;-85
2023/12/01 03:16:56;;;;;;;13.82;5.35;;;;;;;;;;5029685;28;20041;-85
2023/12/01 03:19:22;;;;;;;12.55;5.38;;;;;;;;;;5026549;28;20049;-85
2023/12/01 03:21:49;;;;;;;16.13;5.10;;;;;;;;;;5043355;28;20072;-85
2023/12/01 03:24:15;;;;;;;20.83;8.35;;;;;;;;;;5029773;28;20120;-85
2023/12/01 03:26:41;;;;;;;14.88;5.70;;;;;;;;;;5024831;28;20064;-85
2023/12/01 03:29:08;;;;;;;14.80;6.07;;;;;;;;;;5026929;28;20067;-85
2023/12/01 03:31:34;;;;;;;14.65;5.95;;;;;;;;;;5036293;28;20389;-85
2023/12/01 03:34:01;;;;;;;15.60;6.25;;;;;;;;;;5030932;28;20120;-85
2023/12/01 03:36:27;;;;;;;17.35;5.90;;;;;;;;;;5016968;28;20033;-85
2023/12/01 03:38:53;;;;;;;13.70;5.72;;;;;;;;;;5035749;28;20029;-85
2023/12/01 03:41:19;;;;;;;18.58;7.57;;;;;;;;;;5029140;28;20033;-85
2023/12/01 03:43:45;;;;;;;16.50;5.72;;;;;;;;;;5029798;28;20081;-85
2023/12/01 03:46:11;;;;;;;17.30;6.10;;;;;;;;;;5029573;28;20048;-85
2023/12/01 03:48:37;;;;;;;14.50;6.35;;;;;;;;;;5009198;28;20057;-85
2023/12/01 03:51:03;;;;;;;17.25;5.97;;;;;;;;;;5031620;28;20044;-85
2023/12/01 03:53:32;;;;;;;17.92;6.22;;;;;;;;;;5031482;28;20548;-85
2023/12/01 03:55:58;;;;;;;15.27;6.55;;;;;;;;;;5027259;28;20029;-85
2023/12/01 03:58:25;;;;;;;14.38;6.28;;;;;;;;;;5029124;28;20037;-85
2023/12/01 04:00:54;;;;;;;15.80;6.35;;;;;;;;;;5030371;28;20485;-85
2023/12/01 04:03:20;;;;;;;15.18;6.68;;;;;;;;;;5013387;28;20040;-85
2023/12/01 04:05:47;;;;;;;10.02;5.00;;;;;;;;;;5026735;28;20049;-85
2023/12/01 04:08:13;;;;;;;15.18;5.45;;;;;;;;;;5030789;28;20036;-85
2023/12/01 04:10:40;;;;;;;14.55;5.20;;;;;;;;;;5019652;28;20067;-85
2023/12/01 04:13:07;;;;;;;16.10;6.20;;;;;;;;;;5019851;28;20040;-86
2023/12/01 04:15:33;;;;;;;14.93;5.57;;;;;;;;;;5024778;28;20055;-85
2023/12/01 04:18:09;;;;;;;14.30;6.70;;;;;;;;;;5014094;28;20123;-85
2023/12/01 04:20:38;;;;;;;17.60;6.47;;;;;;;;;;5025221;28;20410;-85
2023/12/01 04:23:11;;;;;;;16.83;7.32;;;;;;;;;;5031329;28;20399;-85
2023/12/01 04:25:38;;;;;;;17.15;7.30;;;;;;;;;;5000996;28;20082;-85
2023/12/01 04:28:04;;;;;;;20.45;7.72;;;;;;;;;;5032032;28;20044;-85
2023/12/01 04:30:31;;;;;;;16.52;7.30;;;;;;;;;;5031912;28;20055;-85
2023/12/01 04:32:57;;;;;;;19.08;7.35;;;;;;;;;;5007713;28;20048;-85
2023/12/01 04:35:28;;;;;;;14.43;5.15;;;;;;;;;;5030041;28;20045;-85
2023/12/01 04:37:58;;;;;;;15.10;5.65;;;;;;;;;;5050871;28;20480;-85
2023/12/01 04:40:24;;;;;;;15.75;6.40;;;;;;;;;;5034523;28;20411;-85
2023/12/01 04:42:51;;;;;;;15.80;5.63;;;;;;;;;;5015405;28;20037;-85
2023/12/01 04:45:18;;;;;;;14.43;5.20;;;;;;;;;;5032124;28;20091;-85
2023/12/01 04:47:46;;;;;;;14.10;5.22;;;;;;;;;;5034666;28;20048;-85
2023/12/01 04:50:15;;;;;;;18.77;5.65;;;;;;;;;;5034437;28;20050;-86
2023/12/01 04:52:41;;;;;;;13.88;5.45;;;;;;;;;;5032149;28;20093;-85
2023/12/01 04:55:08;;;;;;;18.23;7.07;;;;;;;;;;5030474;28;20404;-85
2023/12/01 04:57:34;;;;;;;17.25;6.53;;;;;;;;;;5016057;28;20044;-86
2023/12/01 05:00:00;;;;;;;15.93;5.75;;;;;;;;;;5015668;28;20570;-86
2023/12/01 05:02:26;;;;;;;16.35;5.47;;;;;;;;;;5029663;28;20068;-86
2023/12/01 05:04:52;;;;;;;16.88;5.53;;;;;;;;;;5011949;28;20462;-85
2023/12/01 05:07:18;;;;;;;14.63;6.75;;;;;;;;;;5024604;28;20034;-85
2023/12/01 05:09:44;;;;;;;15.85;6.47;;;;;;;;;;5013450;28;20059;-86
2023/12/01 05:12:10;;;;;;;19.17;6.50;;;;;;;;;;5034169;28;20041;-85
2023/12/01 05:14:36;;;;;;;15.90;5.30;;;;;;;;;;5032315;28;20124;-85
2023/12/01 05:17:02;;;;;;;15.50;6.25;;;;;;;;;;5026996;28;20033;-86
2023/12/01 05:19:28;;;;;;;14.38;5.50;;;;;;;;;;5010950;28;20033;-86
2023/12/01 05:21:54;;;;;;;15.20;6.63;;;;;;;;;;5020411;28;20037;-86
2023/12/01 05:24:20;;;;;;;17.65;6.07;;;;;;;;;;5031410;28;20053;-86
2023/12/01 05:26:46;;;;;;;16.77;6.00;;;;;;;;;;5029532;28;20419;-86
2023/12/01 05:29:13;;;;;;;15.88;6.25;;;;;;;;;;5029391;28;20562;-87
2023/12/01 05:31:42;;;;;;;16.52;6.53;;;;;;;;;;5018110;28;20864;-86
2023/12/01 05:34:08;;;;;;;17.23;7.15;;;;;;;;;;5015266;28;20378;-86
2023/12/01 05:36:34;;;;;;;14.63;5.93;;;;;;;;;;5013520;28;20384;-87
2023/12/01 05:39:00;;;;;;;15.93;5.57;;;;;;;;;;5011054;28;20568;-86
2023/12/01 05:41:26;;;;;;;17.50;5.93;;;;;;;;;;5016401;28;20614;-86
2023/12/01 05:43:52;;;;;;;19.52;6.10;;;;;;;;;;5030974;28;20519;-86
2023/12/01 05:46:18;;;;;;;15.57;6.18;;;;;;;;;;5012968;28;20555;-86
2023/12/01 05:48:45;;;;;;;20.08;5.97;;;;;;;;;;5030859;28;20052;-87
2023/12/01 05:51:11;;;;;;;13.13;5.43;;;;;;;;;;5026288;28;20060;-87
2023/12/01 05:53:37;;;;;;;13.88;6.05;;;;;;;;;;5026523;28;20116;-87
2023/12/01 05:56:03;;;;;;;17.15;6.13;;;;;;;;;;5027649;28;20378;-87
2023/12/01 05:58:29;;;;;;;20.65;6.05;;;;;;;;;;5012096;28;20120;-87
2023/12/01 06:00:56;;;;;;;14.45;5.20;;;;;;;;;;5011508;28;20103;-87
2023/12/01 06:03:22;;;;;;;13.15;6.07;;;;;;;;;;5010324;28;20044;-87
2023/12/01 06:05:49;;;;;;;14.00;5.63;;;;;;;;;;5015163;28;20044;-88
2023/12/01 06:08:15;;;;;;;14.13;5.55;;;;;;;;;;5010559;28;20037;-88
2023/12/01 06:10:41;;;;;;;16.48;6.03;;;;;;;;;;5015741;28;20051;-88
2023/12/01 06:13:07;;;;;;;16.50;6.68;;;;;;;;;;5010975;28;20037;-88
2023/12/01 06:15:33;;;;;;;15.88;5.57;;;;;;;;;;5024322;28;20037;-88
2023/12/01 06:18:01;;;;;;;14.38;5.35;;;;;;;;;;5011392;28;20631;-88
2023/12/01 06:20:29;;;;;;;15.48;5.88;;;;;;;;;;5016225;28;20549;-88
2023/12/01 06:23:05;;;;;;;17.23;5.88;;;;;;;;;;5030223;28;20041;-88
2023/12/01 06:25:32;;;;;;;16.05;6.97;;;;;;;;;;5042499;28;20053;-88
2023/12/01 06:27:59;;;;;;;17.83;6.38;;;;;;;;;;5029994;28;20037;-88
2023/12/01 06:30:26;;;;;;;16.17;6.95;;;;;;;;;;5033138;28;20037;-88
2023/12/01 06:32:52;;;;;;;17.73;6.25;;;;;;;;;;5027506;28;20040;-88
2023/12/01 06:35:19;;;;;;;15.30;5.85;;;;;;;;;;5012606;28;20488;-88
2023/12/01 06:37:45;;;;;;;15.55;6.95;;;;;;;;;;5012097;28;20042;-88
2023/12/01 06:40:12;;;;;;;12.80;5.60;;;;;;;;;;5013601;28;20091;-88
2023/12/01 06:43:09;;;;;;;12.63;5.78;;;;;;;;;;5018558;28;20033;-88
2023/12/01 06:45:36;;;;;;;15.25;5.78;;;;;;;;;;5031805;28;20053;-88
2023/12/01 06:48:02;;;;;;;12.68;5.32;;;;;;;;;;5007469;28;20057;-88
2023/12/01 06:50:28;;;;;;;14.73;5.85;;;;;;;;;;5013765;28;20039;-87
2023/12/01 06:52:54;;;;;;;14.85;5.75;;;;;;;;;;5008921;28;20124;-87
2023/12/01 06:55:20;;;;;;;9.00;4.63;;;;;;;;;;5028719;28;20625;-86
2023/12/01 06:57:47;;;;;;;12.70;5.20;;;;;;;;;;5007561;28;20051;-87
2023/12/01 07:00:30;;;;;;;14.95;5.32;;;;;;;;;;5011872;28;20128;-86
2023/12/01 07:02:56;;;;;;;;;;;;;;;;;;5011382;28;20547;-87
2023/12/01 07:05:25;;;;;;;12.20;5.13;;;;;;;;;;5032020;28;20004;-85
2023/12/01 07:07:52;;;;;;;13.52;5.18;;;;;;;;;;5029284;28;20045;-85
2023/12/01 07:10:21;;;;;;;7.97;4.38;;;;;;;;;;5017353;28;20118;-85
2023/12/01 07:12:47;;;;;;;12.52;5.03;;;;;;;;;;5014899;28;20511;-85
2023/12/01 07:15:13;;;;;;;15.27;6.95;;;;;;;;;;5035672;28;20037;-85
2023/12/01 07:17:39;;;;;;;15.82;6.38;;;;;;;;;;5038209;28;20037;-84
2023/12/01 07:20:14;;;;;;;12.25;6.60;;;;;;;;;;5036676;28;20100;-84
2023/12/01 07:22:42;;;;;;;13.40;5.85;;;;;;;;;;5055621;28;20522;-85
2023/12/01 07:25:10;;;;;;;15.88;6.05;;;;;;;;;;5056323;28;20500;-84
2023/12/01 07:27:39;;;;;;;13.30;5.82;;;;;;;;;;5037808;28;20045;-84
2023/12/01 07:30:06;;;;;;;12.73;6.20;;;;;;;;;;5036691;28;20163;-85
2023/12/01 07:32:32;;;;;;;15.77;4.93;;;;;;;;;;5040137;28;20447;-84
2023/12/01 07:34:58;;;;;;;16.95;4.78;;;;;;;;;;5039454;28;20040;-84
2023/12/01 07:37:24;;;;;;;16.77;5.72;;;;;;;;;;5036676;28;20117;-86
2023/12/01 07:39:50;;;;;;;12.20;5.35;;;;;;;;;;5029957;28;20116;-86
2023/12/01 07:42:17;;;;;;;13.05;5.70;;;;;;;;;;5030599;28;20056;-87
2023/12/01 07:44:44;;;;;;;13.75;5.53;;;;;;;;;;5028607;28;20040;-86
2023/12/01 07:47:11;;;;;;;11.27;4.70;;;;;;;;;;5007086;28;20062;-86
2023/12/01 07:49:38;;;;;;;13.35;4.60;;;;;;;;;;5009824;28;20454;-87
2023/12/01 07:52:07;;;;;;;12.77;5.47;;;;;;;;;;5015472;28;20040;-87
2023/12/01 07:54:35;;;;;;;9.95;6.07;;;;;;;;;;5009902;28;20037;-87
2023/12/01 07:57:01;;;;;;;12.98;5.43;;;;;;;;;;5027666;28;20036;-87
2023/12/01 07:59:27;;;;;;;12.35;5.57;;;;;;;;;;5025831;28;20033;-87
2023/12/01 08:01:53;;;;;;;13.20;5.45;;;;;;;;;;5010007;28;20041;-84
2023/12/01 08:04:19;;;;;;;13.10;5.85;;;;;;;;;;5025698;28;20041;-88
2023/12/01 08:06:45;;;;;;;13.55;5.55;;;;;;;;;;5010231;28;20424;-88
2023/12/01 08:09:16;;;;;;;13.65;5.68;;;;;;;;;;5027517;28;20498;-88
2023/12/01 08:11:43;;;;;;;14.15;7.20;;;;;;;;;;5029967;28;20045;-88
2023/12/01 08:14:10;;;;;;;14.68;5.07;;;;;;;;;;5009436;28;20743;-88
2023/12/01 08:16:36;;;;;;;14.02;6.80;;;;;;;;;;5008808;28;20118;-87
2023/12/01 08:19:03;;;;;;;17.95;6.40;;;;;;;;;;5007704;28;20033;-88
2023/12/01 08:21:31;;;;;;;14.40;5.35;;;;;;;;;;5009878;28;20049;-88
2023/12/01 08:23:57;;;;;;;15.13;5.75;;;;;;;;;;5026512;28;20079;-87
2023/12/01 08:26:23;;;;;;;16.15;5.28;;;;;;;;;;5007524;28;20033;-86
2023/12/01 08:28:49;;;;;;;13.60;5.03;;;;;;;;;;5019806;28;20052;-88
2023/12/01 08:31:16;;;;;;;15.30;5.18;;;;;;;;;;5027331;28;20400;-88
2023/12/01 08:33:43;;;;;;;15.43;5.35;;;;;;;;;;5022469;28;20044;-88
2023/12/01 08:36:09;;;;;;;15.35;5.60;;;;;;;;;;5025346;28;20786;-88
2023/12/01 08:38:35;;;;;;;11.00;5.13;;;;;;;;;;5009505;28;20125;-89
2023/12/01 08:41:01;;;;;;;15.38;5.55;;;;;;;;;;5015965;28;20575;-88
2023/12/01 08:43:27;;;;;;;16.27;5.15;;;;;;;;;;5010060;28;20037;-88
2023/12/01 08:45:53;;;;;;;14.80;6.03;;;;;;;;;;5009742;28;20044;-85
2023/12/01 08:48:19;;;;;;;15.23;5.63;;;;;;;;;;5022222;28;20045;-88
2023/12/01 08:50:46;;;;;;;11.73;4.68;;;;;;;;;;5016028;28;20041;-87
2023/12/01 08:53:12;;;;;;;16.48;5.63;;;;;;;;;;5009060;28;20580;-88
2023/12/01 08:55:41;;;;;;;17.25;7.10;;;;;;;;;;5009543;28;20029;-88
2023/12/01 08:58:07;;;;;;;13.32;5.22;;;;;;;;;;5012119;28;20033;-87
2023/12/01 09:00:34;;;;;;;11.95;4.90;;;;;;;;;;5018863;28;20091;-88
2023/12/01 09:03:00;;;;;;;12.32;5.00;;;;;;;;;;5015262;28;20471;-88
2023/12/01 09:05:26;;;;;;;12.00;4.60;;;;;;;;;;5029259;28;20045;-88
2023/12/01 09:07:52;;;;;;;13.63;4.95;;;;;;;;;;5023591;28;20043;-87
2023/12/01 09:10:22;;;;;;;6.95;3.28;;;;;;;;;;5013975;28;20033;-88
2023/12/01 09:12:49;;;;;;;14.68;5.68;;;;;;;;;;5027982;28;20041;-88
2023/12/01 09:15:15;;;;;;;15.68;5.80;;;;;;;;;;5004983;28;20037;-88
2023/12/01 09:17:42;;;;;;;11.90;5.22;;;;;;;;;;5029342;28;20545;-88
2023/12/01 09:20:11;;;;;;;12.75;6.13;;;;;;;;;;5011950;28;20082;-87
2023/12/01 09:22:37;;;;;;;11.43;4.63;;;;;;;;;;5028294;28;20045;-87
2023/12/01 09:25:04;;;;;;;13.00;5.28;;;;;;;;;;5012661;28;20493;-87
2023/12/01 09:27:30;;;;;;;14.10;5.03;;;;;;;;;;5035172;28;20048;-86
2023/12/01 09:29:56;;;;;;;10.55;5.32;;;;;;;;;;5026248;28;20070;-85
2023/12/01 09:32:22;;;;;;;12.25;5.22;;;;;;;;;;5027279;28;20041;-89
2023/12/01 09:34:48;;;;;;;10.73;5.13;;;;;;;;;;5016059;28;20115;-86
2023/12/01 09:37:14;;;;;;;11.80;5.75;;;;;;;;;;5049127;28;20076;-87
2023/12/01 09:39:43;;;;;;;12.13;5.28;;;;;;;;;;5032516;28;20493;-87
2023/12/01 09:42:09;;;;;;;13.35;4.55;;;;;;;;;;5013096;28;20037;-86
2023/12/01 09:44:36;;;;;;;9.50;5.00;;;;;;;;;;5011927;28;20051;-86
2023/12/01 09:47:04;;;;;;;12.48;5.13;;;;;;;;;;5014438;28;20037;-86
2023/12/01 09:49:34;;;;;;;7.57;4.28;;;;;;;;;;5029296;28;20112;-86
2023/12/01 09:52:00;;;;;;;12.35;4.82;;;;;;;;;;5007432;28;20381;-86
2023/12/01 09:54:26;;;;;;;11.13;4.82;;;;;;;;;;5015093;28;20435;-86
2023/12/01 09:56:52;;;;;;;11.25;4.72;;;;;;;;;;5026628;28;20041;-85
2023/12/01 09:59:19;;;;;;;9.15;4.07;;;;;;;;;;5034449;28;20073;-85
2023/12/01 10:01:47;;;;;;;10.43;4.15;;;;;;;;;;5028200;28;20550;-86
2023/12/01 10:04:14;;;;;;;10.45;4.25;;;;;;;;;;5014910;28;20037;-85
2023/12/01 10:06:40;;;;;;;11.73;4.40;;;;;;;;;;5027269;28;20107;-85
2023/12/01 10:09:09;;;;;;;12.90;4.75;;;;;;;;;;5029805;28;20032;-85
2023/12/01 10:11:35;;;;;;;13.82;6.65;;;;;;;;;;5020237;28;20045;-85
2023/12/01 10:14:08;;;;;;;10.63;5.40;;;;;;;;;;5017080;28;20070;-86
2023/12/01 10:16:35;;;;;;;10.43;4.90;;;;;;;;;;5027042;28;20038;-86
2023/12/01 10:19:04;;;;;;;11.20;5.82;;;;;;;;;;5013859;28;20037;-85
2023/12/01 10:21:56;;;;;;;8.95;4.38;;;;;;;;;;5024040;28;20077;-86
2023/12/01 10:24:23;;;;;;;9.38;4.00;;;;;;;;;;5009285;28;20091;-86
2023/12/01 10:26:49;;;;;;;10.43;4.28;;;;;;;;;;5010386;28;20041;-85
2023/12/01 10:29:28;;;;;;;7.20;3.47;;;;;;;;;;5028360;28;20045;-85
2023/12/01 10:32:04;;;;;;;11.20;4.03;;;;;;;;;;5009067;28;20087;-85
2023/12/01 10:34:30;;;;;;;7.00;3.35;;;;;;;;;;5026879;28;20049;-86
2023/12/01 10:36:57;;;;;;;9.50;3.83;;;;;;;;;;5007286;28;20129;-86
2023/12/01 10:39:27;;;;;;;9.30;4.15;;;;;;;;;;5026089;28;20054;-85
2023/12/01 10:41:57;;;;;;;9.45;4.80;;;;;;;;;;5027102;28;20041;-85
2023/12/01 10:44:24;;;;;;;6.90;3.97;;;;;;;;;;5027747;28;20042;-85
2023/12/01 10:46:51;;;;;;;8.75;3.97;;;;;;;;;;5029116;28;20049;-84
2023/12/01 10:49:17;;;;;;;6.85;3.05;;;;;;;;;;5014285;28;20041;-85
2023/12/01 10:51:44;;;;;;;10.88;4.88;;;;;;;;;;5029285;28;20509;-85
2023/12/01 10:54:12;;;;;;;10.50;4.20;;;;;;;;;;5026549;28;20136;-84
2023/12/01 10:56:45;;;;;;;11.05;3.65;;;;;;;;;;5010528;28;20128;-85
2023/12/01 10:59:13;;;;;;;7.13;3.63;;;;;;;;;;5012318;28;20168;-83
2023/12/01 11:01:40;;;;;;;11.40;4.50;;;;;;;;;;5026735;28;20040;-82
2023/12/01 11:04:09;;;;;;;11.15;3.92;;;;;;;;;;5025522;28;20112;-82
2023/12/01 11:06:46;;;;;;;8.02;3.75;;;;;;;;;;5033799;28;20033;-82
2023/12/01 11:09:12;;;;;;;8.90;4.25;;;;;;;;;;5048992;28;20068;-82
2023/12/01 11:11:49;;;;;;;7.18;3.65;;;;;;;;;;5027612;28;20041;-82
2023/12/01 11:14:20;;;;;;;10.77;3.88;;;;;;;;;;5043876;28;20128;-82
2023/12/01 11:16:47;;;;;;;9.13;4.40;;;;;;;;;;5048373;28;20037;-85
2023/12/01 11:19:13;;;;;;;7.65;3.63;;;;;;;;;;5025828;28;20511;-83
2023/12/01 11:21:43;;;;;;;9.98;3.85;;;;;;;;;;5031717;28;20040;-83
2023/12/01 11:24:31;;;;;;;8.52;3.88;;;;;;;;;;5049012;28;20045;-84
2023/12/01 11:27:04;;;;;;;7.07;3.60;;;;;;;;;;5030425;28;20065;-83
2023/12/01 11:29:34;;;;;;;10.07;4.15;;;;;;;;;;5031683;28;20052;-82
2023/12/01 11:32:00;;;;;;;8.65;3.88;;;;;;;;;;5046653;28;20049;-82
2023/12/01 11:34:26;;;;;;;10.68;4.95;;;;;;;;;;5030189;28;20069;-82
2023/12/01 11:36:52;;;;;;;6.97;3.90;;;;;;;;;;5034656;28;20029;-82
2023/12/01 11:39:29;;;;;;;8.07;3.58;;;;;;;;;;5029237;28;20037;-82
2023/12/01 11:41:58;;;;;;;9.32;5.00;;;;;;;;;;5037462;28;20045;-83
2023/12/01 11:44:30;;;;;;;9.32;3.97;;;;;;;;;;5032137;28;20040;-84
2023/12/01 11:46:57;;;;;;;7.65;3.70;;;;;;;;;;5024998;28;20381;-82
2023/12/01 11:49:27;;;;;;;8.55;4.38;;;;;;;;;;5017761;28;20041;-82
2023/12/01 11:51:53;;;;;;;9.52;4.18;;;;;;;;;;5032094;28;20045;-82
2023/12/01 11:54:20;;;;;;;11.65;3.88;;;;;;;;;;5049404;28;20036;-82
2023/12/01 11:56:46;;;;;;;8.82;4.13;;;;;;;;;;5032841;28;20045;-82
2023/12/01 11:59:12;;;;;;;9.52;4.18;;;;;;;;;;5031564;28;20037;-82
2023/12/01 12:01:39;;;;;;;8.82;3.88;;;;;;;;;;5045366;28;20033;-82
2023/12/01 12:04:05;;;;;;;9.02;3.63;;;;;;;;;;5033455;28;20048;-82
2023/12/01 12:06:34;;;;;;;8.38;4.57;;;;;;;;;;5045984;28;20068;-84
2023/12/01 12:09:06;;;;;;;9.73;4.55;;;;;;;;;;5031964;28;20092;-82
2023/12/01 12:11:33;;;;;;;11.73;4.93;;;;;;;;;;5032948;28;20044;-83
2023/12/01 12:14:01;;;;;;;10.50;4.88;;;;;;;;;;5029535;28;20063;-82
2023/12/01 12:16:28;;;;;;;10.15;4.47;;;;;;;;;;5023959;28;20037;-82
2023/12/01 12:18:57;;;;;;;9.50;4.10;;;;;;;;;;5016501;28;20045;-82
2023/12/01 12:21:23;;;;;;;10.32;4.20;;;;;;;;;;5031579;28;20041;-82
2023/12/01 12:23:49;;;;;;;6.38;4.03;;;;;;;;;;5014238;28;20511;-82
2023/12/01 12:26:20;;;;;;;10.77;4.75;;;;;;;;;;5034714;28;20045;-82
2023/12/01 12:28:54;;;;;;;9.75;4.28;;;;;;;;;;5027449;28;20100;-83
2023/12/01 12:31:23;;;;;;;9.27;4.43;;;;;;;;;;5031721;28;20040;-82
2023/12/01 12:33:49;;;;;;;11.13;4.57;;;;;;;;;;5013187;28;20072;-82
2023/12/01 12:36:16;;;;;;;7.80;3.95;;;;;;;;;;5030135;28;20038;-83
2023/12/01 12:38:42;;;;;;;9.55;4.53;;;;;;;;;;5019422;28;20050;-83
2023/12/01 12:41:21;;;;;;;11.57;5.25;;;;;;;;;;5014683;28;20491;-83
2023/12/01 12:43:54;;;;;;;10.27;4.50;;;;;;;;;;5030644;28;20037;-85
2023/12/01 12:46:21;;;;;;;7.47;3.22;;;;;;;;;;5028667;28;20318;-83
2023/12/01 12:48:47;;;;;;;9.60;4.10;;;;;;;;;;5012379;28;20049;-84
2023/12/01 12:51:17;;;;;;;10.52;4.35;;;;;;;;;;5044593;28;20050;-83
2023/12/01 12:53:45;;;;;;;12.38;4.93;;;;;;;;;;5043323;28;20041;-83
2023/12/01 12:56:21;;;;;;;10.65;4.75;;;;;;;;;;5030890;28;20415;-83
2023/12/01 12:58:47;;;;;;;;;;;;;;;;;;5035680;28;20377;-83
2023/12/01 13:01:13;;;;;;;8.20;4.07;;;;;;;;;;5028910;28;19924;-82
2023/12/01 13:03:40;;;;;;;9.15;4.50;;;;;;;;;;5039872;28;20049;-84
2023/12/01 13:06:06;;;;;;;11.25;4.20;;;;;;;;;;5049829;28;20064;-85
2023/12/01 13:08:36;;;;;;;11.07;5.07;;;;;;;;;;5050419;28;20153;-83
2023/12/01 13:11:03;;;;;;;7.05;3.42;;;;;;;;;;5031822;28;20037;-84
2023/12/01 13:13:29;;;;;;;12.93;5.78;;;;;;;;;;5036194;28;20053;-85
2023/12/01 13:15:55;;;;;;;9.35;4.28;;;;;;;;;;5021153;28;20056;-84
2023/12/01 13:18:21;;;;;;;10.25;4.20;;;;;;;;;;5035705;28;20045;-84
2023/12/01 13:20:48;;;;;;;10.00;4.57;;;;;;;;;;5021299;28;20041;-83
2023/12/01 13:23:17;;;;;;;10.82;5.03;;;;;;;;;;5049048;28;20519;-85
2023/12/01 13:25:44;;;;;;;10.07;4.93;;;;;;;;;;5026805;28;20033;-85
2023/12/01 13:28:10;;;;;;;11.68;5.00;;;;;;;;;;5012225;28;20450;-85
2023/12/01 13:30:36;;;;;;;11.48;4.25;;;;;;;;;;5028107;28;20044;-85
2023/12/01 13:33:02;;;;;;;10.50;4.55;;;;;;;;;;5027322;28;20075;-85
2023/12/01 13:35:28;;;;;;;9.40;4.38;;;;;;;;;;5031318;28;20052;-87
2023/12/01 13:37:54;;;;;;;15.63;5.22;;;;;;;;;;5016587;28;20037;-85
2023/12/01 13:40:21;;;;;;;8.77;5.35;;;;;;;;;;5015306;28;20124;-85
2023/12/01 13:42:47;;;;;;;10.10;4.68;;;;;;;;;;5014245;28;20041;-85
2023/12/01 13:45:13;;;;;;;9.65;4.95;;;;;;;;;;5027213;28;20065;-85
2023/12/01 13:47:40;;;;;;;8.93;4.85;;;;;;;;;;5023680;28;20508;-86
2023/12/01 13:50:07;;;;;;;10.98;4.97;;;;;;;;;;5006440;28;20040;-85
2023/12/01 13:52:35;;;;;;;9.60;4.35;;;;;;;;;;5012754;28;20053;-85
2023/12/01 13:55:01;;;;;;;10.73;5.05;;;;;;;;;;5028136;28;20091;-85
2023/12/01 13:57:27;;;;;;;10.27;4.80;;;;;;;;;;5032859;28;20037;-86
2023/12/01 13:59:55;;;;;;;9.70;4.38;;;;;;;;;;5024394;28;20128;-85
2023/12/01 14:02:22;;;;;;;10.05;4.40;;;;;;;;;;5026697;28;20112;-85
2023/12/01 14:04:48;;;;;;;17.17;8.13;;;;;;;;;;5023209;28;20073;-85
2023/12/01 14:07:14;;;;;;;8.90;4.60;;;;;;;;;;5024040;28;20047;-85
2023/12/01 14:09:40;;;;;;;7.82;4.32;;;;;;;;;;5042671;28;20045;-85
2023/12/01 14:12:06;;;;;;;10.95;5.35;;;;;;;;;;5030670;28;20045;-85
2023/12/01 14:14:32;;;;;;;10.30;4.65;;;;;;;;;;5028445;28;20501;-85
2023/12/01 14:16:59;;;;;;;9.95;4.57;;;;;;;;;;5027292;28;20040;-85
2023/12/01 14:19:25;;;;;;;7.28;3.22;;;;;;;;;;5008623;28;20111;-85
2023/12/01 14:21:51;;;;;;;9.05;4.20;;;;;;;;;;5023364;28;20046;-85
2023/12/01 14:24:18;;;;;;;7.93;3.55;;;;;;;;;;5010386;28;20098;-86
2023/12/01 14:26:47;;;;;;;8.80;4.45;;;;;;;;;;5028582;28;20029;-84
2023/12/01 14:29:13;;;;;;;7.10;4.15;;;;;;;;;;5013208;28;20033;-85
2023/12/01 14:31:39;;;;;;;10.85;4.28;;;;;;;;;;5008639;28;20047;-85
2023/12/01 14:34:06;;;;;;;7.95;4.25;;;;;;;;;;5009146;28;20041;-85